createdAt,value
2022-08-06T00:00:06.449Z,58.65
2022-08-06T00:02:37.693Z,58.92
2022-08-06T00:05:06.814Z,58.79
2022-08-06T00:07:47.501Z,58.83
2022-08-06T00:10:16.697Z,59.00
2022-08-06T00:12:46.102Z,59.06
2022-08-06T00:15:19.999Z,59.20
2022-08-06T00:18:07.258Z,59.32
2022-08-06T00:20:41.954Z,59.42
2022-08-06T00:23:17.237Z,59.60
2022-08-06T00:25:52.859Z,59.70
2022-08-06T00:28:21.553Z,59.92
2022-08-06T00:30:59.183Z,59.98
2022-08-06T00:33:49.936Z,60.78
2022-08-06T00:36:17.237Z,60.67
2022-08-06T00:38:47.071Z,60.62
2022-08-06T00:41:17.233Z,60.99
2022-08-06T00:43:45.563Z,61.02
2022-08-06T00:46:16.368Z,61.34
2022-08-06T00:48:53.074Z,61.20
2022-08-06T00:51:23.312Z,61.41
2022-08-06T00:53:54.943Z,61.39
2022-08-06T00:56:29.363Z,61.72
2022-08-06T00:59:03.088Z,61.77
2022-08-06T01:01:33.038Z,61.86
2022-08-06T01:04:20.011Z,61.98
2022-08-06T01:06:56.864Z,61.94
2022-08-06T01:09:31.636Z,62.18
2022-08-06T01:12:00.536Z,62.30
2022-08-06T01:14:38.843Z,62.14
2022-08-06T01:17:19.101Z,61.99
2022-08-06T01:21:58.482Z,62.00
2022-08-06T01:22:53.513Z,62.00
2022-08-06T01:25:47.129Z,62.02
2022-08-06T01:28:22.991Z,62.00
2022-08-06T01:31:02.347Z,62.07
2022-08-06T01:33:38.837Z,62.24
2022-08-06T01:36:10.064Z,62.32
2022-08-06T01:38:43.539Z,62.29
2022-08-06T01:41:56.681Z,62.46
2022-08-06T01:44:28.745Z,62.55
2022-08-06T01:46:59.584Z,62.61
2022-08-06T01:50:01.484Z,62.71
2022-08-06T01:52:29.876Z,62.85
2022-08-06T01:55:00.788Z,62.87
2022-08-06T01:57:32.711Z,63.02
2022-08-06T02:00:29.356Z,63.08
2022-08-06T02:03:01.039Z,63.08
2022-08-06T02:05:32.236Z,63.36
2022-08-06T02:08:37.063Z,63.40
2022-08-06T02:10:57.125Z,63.52
2022-08-06T02:13:25.749Z,63.52
2022-08-06T02:16:05.735Z,63.50
2022-08-06T02:18:36.963Z,63.65
2022-08-06T02:21:19.214Z,63.83
2022-08-06T02:23:56.718Z,63.88
2022-08-06T02:26:27.045Z,63.90
2022-08-06T02:29:01.164Z,63.97
2022-08-06T02:31:30.808Z,63.87
2022-08-06T02:34:15.945Z,64.10
2022-08-06T02:36:50.474Z,64.15
2022-08-06T02:39:29.895Z,64.29
2022-08-06T02:42:14.906Z,64.42
2022-08-06T02:44:47.258Z,64.46
2022-08-06T02:47:23.537Z,64.43
2022-08-06T02:50:14.372Z,64.53
2022-08-06T02:52:56.592Z,64.37
2022-08-06T02:55:29.399Z,64.55
2022-08-06T02:58:06.543Z,64.62
2022-08-06T03:00:38.475Z,64.77
2022-08-06T03:03:16.084Z,64.84
2022-08-06T03:05:55.960Z,64.72
2022-08-06T03:08:27.197Z,64.81
2022-08-06T03:10:56.389Z,64.82
2022-08-06T03:13:29.341Z,65.08
2022-08-06T03:16:04.374Z,65.07
2022-08-06T03:18:34.674Z,65.23
2022-08-06T03:21:03.458Z,65.36
2022-08-06T03:23:36.842Z,65.26
2022-08-06T03:26:08.412Z,65.61
2022-08-06T03:28:36.620Z,65.59
2022-08-06T03:31:05.486Z,65.69
2022-08-06T03:33:53.737Z,65.75
2022-08-06T03:36:23.235Z,65.82
2022-08-06T03:38:58.426Z,65.74
2022-08-06T03:41:29.146Z,65.97
2022-08-06T03:44:04.576Z,66.21
2022-08-06T03:46:36.547Z,65.93
2022-08-06T03:49:07.522Z,66.20
2022-08-06T03:51:52.620Z,66.17
2022-08-06T03:54:30.493Z,66.33
2022-08-06T03:57:07.738Z,66.39
2022-08-06T03:59:43.554Z,66.36
2022-08-06T04:02:37.044Z,66.60
2022-08-06T04:05:16.956Z,66.57
2022-08-06T04:07:55.132Z,66.61
2022-08-06T04:10:33.808Z,66.70
2022-08-06T04:13:08.634Z,66.85
2022-08-06T04:15:56.191Z,66.96
2022-08-06T04:18:26.577Z,66.98
2022-08-06T04:20:59.575Z,66.88
2022-08-06T04:23:45.500Z,67.14
2022-08-06T04:26:15.480Z,67.45
2022-08-06T04:28:57.300Z,67.37
2022-08-06T04:32:11.159Z,67.32
2022-08-06T04:34:15.973Z,67.31
2022-08-06T04:36:46.329Z,67.37
2022-08-06T04:39:20.988Z,67.47
2022-08-06T04:41:56.906Z,67.54
2022-08-06T04:44:30.081Z,67.45
2022-08-06T04:46:58.638Z,67.63
2022-08-06T04:49:58.165Z,67.38
2022-08-06T04:52:46.970Z,67.42
2022-08-06T04:55:25.121Z,67.87
2022-08-06T04:58:03.618Z,67.84
2022-08-06T05:01:00.252Z,67.74
2022-08-06T05:04:06.620Z,67.77
2022-08-06T05:06:18.269Z,68.00
2022-08-06T05:08:52.242Z,67.82
2022-08-06T05:11:25.031Z,67.70
2022-08-06T05:13:56.503Z,67.75
2022-08-06T05:16:28.093Z,67.96
2022-08-06T05:19:20.796Z,68.07
2022-08-06T05:22:11.205Z,67.87
2022-08-06T05:24:38.916Z,67.91
2022-08-06T05:27:08.213Z,67.70
2022-08-06T05:29:36.541Z,67.60
2022-08-06T05:32:06.683Z,67.33
2022-08-06T05:34:38.334Z,67.11
2022-08-06T05:37:06.287Z,66.84
2022-08-06T05:39:57.939Z,66.90
2022-08-06T05:42:27.686Z,66.54
2022-08-06T05:44:55.733Z,66.59
2022-08-06T05:47:25.626Z,66.17
2022-08-06T05:50:18.531Z,66.31
2022-08-06T05:52:57.436Z,66.44
2022-08-06T05:55:29.908Z,66.60
2022-08-06T05:58:09.078Z,66.13
2022-08-06T06:00:44.005Z,65.85
2022-08-06T06:03:24.513Z,65.58
2022-08-06T06:06:05.844Z,65.29
2022-08-06T06:08:55.605Z,65.01
2022-08-06T06:11:46.924Z,64.78
2022-08-06T06:14:32.305Z,64.73
2022-08-06T06:17:09.502Z,64.77
2022-08-06T06:19:51.963Z,64.89
2022-08-06T06:22:27.810Z,65.02
2022-08-06T06:24:59.984Z,64.97
2022-08-06T06:27:42.829Z,65.03
2022-08-06T06:30:19.867Z,65.00
2022-08-06T06:33:05.933Z,65.09
2022-08-06T06:35:49.450Z,65.09
2022-08-06T06:38:27.799Z,65.05
2022-08-06T06:41:06.689Z,65.19
2022-08-06T06:43:53.844Z,65.11
2022-08-06T06:46:36.994Z,65.23
2022-08-06T06:49:53.204Z,65.13
2022-08-06T06:52:10.523Z,64.96
2022-08-06T06:54:42.208Z,64.72
2022-08-06T06:57:17.959Z,64.48
2022-08-06T07:00:04.644Z,64.33
2022-08-06T07:02:42.157Z,64.22
2022-08-06T07:05:13.387Z,64.04
2022-08-06T07:07:49.945Z,63.83
2022-08-06T07:10:20.261Z,63.61
2022-08-06T07:12:50.830Z,63.36
2022-08-06T07:15:21.858Z,63.29
2022-08-06T07:17:59.621Z,63.19
2022-08-06T07:20:41.675Z,63.16
2022-08-06T07:24:08.364Z,62.98
2022-08-06T07:26:01.329Z,62.77
2022-08-06T07:28:31.213Z,62.54
2022-08-06T07:31:07.187Z,62.28
2022-08-06T07:34:00.521Z,62.03
2022-08-06T07:36:29.718Z,61.71
2022-08-06T07:39:01.891Z,61.49
2022-08-06T07:42:06.899Z,61.23
2022-08-06T07:44:22.529Z,60.79
2022-08-06T07:47:01.261Z,60.25
2022-08-06T07:49:59.758Z,59.92
2022-08-06T07:52:29.749Z,59.55
2022-08-06T07:55:03.277Z,59.25
2022-08-06T07:57:39.722Z,58.87
2022-08-06T08:00:19.932Z,58.50
2022-08-06T08:03:09.784Z,58.26
2022-08-06T08:06:00.644Z,58.02
2022-08-06T08:08:30.749Z,57.57
2022-08-06T08:10:59.162Z,57.20
2022-08-06T08:13:41.024Z,57.02
2022-08-06T08:16:12.521Z,56.39
2022-08-06T08:18:52.060Z,56.33
2022-08-06T08:21:21.775Z,56.05
2022-08-06T08:23:55.429Z,55.86
2022-08-06T08:26:25.520Z,55.77
2022-08-06T08:28:54.809Z,55.15
2022-08-06T08:31:26.371Z,52.54
2022-08-06T08:33:56.282Z,50.25
2022-08-06T08:36:30.576Z,48.51
2022-08-06T08:39:04.258Z,46.10
2022-08-06T08:41:48.745Z,44.48
2022-08-06T08:44:26.448Z,42.27
2022-08-06T08:46:58.908Z,40.82
2022-08-06T08:49:30.622Z,39.65
2022-08-06T08:52:00.696Z,38.19
2022-08-06T08:54:31.633Z,36.81
2022-08-06T08:57:11.429Z,36.90
2022-08-06T08:59:59.739Z,36.15
2022-08-06T09:02:30.710Z,35.18
2022-08-06T09:05:01.092Z,34.62
2022-08-06T09:07:36.088Z,34.82
2022-08-06T09:10:06.645Z,34.88
2022-08-06T09:12:44.490Z,34.19
2022-08-06T09:15:14.582Z,33.90
2022-08-06T09:18:12.149Z,35.30
2022-08-06T09:20:35.631Z,36.98
2022-08-06T09:23:07.253Z,37.80
2022-08-06T09:25:49.394Z,38.67
2022-08-06T09:28:32.147Z,39.87
2022-08-06T09:31:00.964Z,40.64
2022-08-06T09:34:28.761Z,40.82
2022-08-06T09:36:29.932Z,41.45
2022-08-06T09:39:00.500Z,41.97
2022-08-06T09:41:30.340Z,42.71
2022-08-06T09:44:05.204Z,43.05
2022-08-06T09:46:38.157Z,43.33
2022-08-06T09:49:45.523Z,43.11
2022-08-06T09:52:11.817Z,43.66
2022-08-06T09:54:42.786Z,43.55
2022-08-06T09:57:10.987Z,43.94
2022-08-06T09:59:50.301Z,44.24
2022-08-06T10:02:24.083Z,44.24
2022-08-06T10:05:19.215Z,44.08
2022-08-06T10:07:52.942Z,44.34
2022-08-06T10:10:34.276Z,44.32
2022-08-06T10:13:19.495Z,44.30
2022-08-06T10:16:01.791Z,44.10
2022-08-06T10:18:55.295Z,44.29
2022-08-06T10:21:26.972Z,44.26
2022-08-06T10:24:00.844Z,44.11
2022-08-06T10:26:30.971Z,43.90
2022-08-06T10:29:05.903Z,43.11
2022-08-06T10:31:36.743Z,43.10
2022-08-06T10:34:17.144Z,42.83
2022-08-06T10:36:48.938Z,42.52
2022-08-06T10:40:07.464Z,42.32
2022-08-06T10:42:19.964Z,41.78
2022-08-06T10:44:51.109Z,42.11
2022-08-06T10:48:58.494Z,42.25
2022-08-06T10:50:25.748Z,41.79
2022-08-06T10:52:59.981Z,41.66
2022-08-06T10:55:34.271Z,40.63
2022-08-06T10:58:11.136Z,40.49
2022-08-06T11:00:44.877Z,40.19
2022-08-06T11:03:24.737Z,39.25
2022-08-06T11:05:58.537Z,38.70
2022-08-06T11:08:43.220Z,38.05
2022-08-06T11:11:26.427Z,37.81
2022-08-06T11:14:03.645Z,38.57
2022-08-06T11:16:34.518Z,38.44
2022-08-06T11:19:07.079Z,37.37
2022-08-06T11:22:02.674Z,37.04
2022-08-06T11:24:28.021Z,36.22
2022-08-06T11:27:02.075Z,36.03
2022-08-06T11:30:09.326Z,35.66
2022-08-06T11:32:48.089Z,35.88
2022-08-06T11:35:33.824Z,35.86
2022-08-06T11:38:25.083Z,35.99
2022-08-06T11:41:05.851Z,36.37
2022-08-06T11:44:07.999Z,36.44
2022-08-06T11:46:39.571Z,36.37
2022-08-06T11:49:21.956Z,35.80
2022-08-06T11:51:59.432Z,35.64
2022-08-06T11:54:38.447Z,35.42
2022-08-06T11:57:41.273Z,34.65
2022-08-06T12:00:20.243Z,34.14
2022-08-06T12:02:58.451Z,34.14
2022-08-06T12:05:57.225Z,35.08
2022-08-06T12:08:42.709Z,35.85
2022-08-06T12:11:25.119Z,36.12
2022-08-06T12:14:32.182Z,36.25
2022-08-06T12:16:53.670Z,36.46
2022-08-06T12:19:24.457Z,37.26
2022-08-06T12:21:57.157Z,37.63
2022-08-06T12:24:51.832Z,37.81
2022-08-06T19:20:20.134Z,43.88
2022-08-06T19:22:45.554Z,44.18
2022-08-06T19:25:28.767Z,44.70
2022-08-06T19:28:49.121Z,44.56
2022-08-06T19:31:43.184Z,44.76
2022-08-06T19:34:16.720Z,44.96
2022-08-06T19:38:00.079Z,45.04
2022-08-06T19:44:27.935Z,45.46
2022-08-06T20:35:20.507Z,49.03
2022-08-06T20:44:39.485Z,50.22
2022-08-06T21:25:02.457Z,51.82
2022-08-06T21:31:57.090Z,52.83
2022-08-06T21:35:43.063Z,53.11
2022-08-06T21:40:29.110Z,53.28
